Time;durP1;ratioP1;P1;durP2;ratioP2;P2;SDS_P1;SDS_P2;PMS_P1;PMS_P2;Temp;Humidity;BMP_temperature;BMP_pressure;BME280_temperature;BME280_humidity;BME280_pressure;Samples;Min_cycle;Max_cycle;Signal;HPM_P1;HPM_P2
2022/04/02 00:00:06;;;;;;;;;;;;;;;17.56;58.23;96987.22;2085308;28;20988;-50
2022/04/02 00:01:07;;;;;;;0.95;0.60;;;;;;;17.61;58.18;96990.03;2086255;28;20032;-51
2022/04/02 00:02:09;;;;;;;;;;;;;;;17.55;58.44;96990.13;2084809;28;20056;-50
2022/04/02 00:03:09;;;;;;;0.82;0.70;;;;;;;17.59;58.31;96984.06;2085631;28;19951;-50
2022/04/02 00:04:11;;;;;;;;;;;;;;;17.52;58.21;96994.09;2082534;28;20133;-52
2022/04/02 00:05:12;;;;;;;;;;;;;;;17.47;58.48;96993.19;2083513;28;20044;-50
2022/04/02 00:06:14;;;;;;;2.22;0.55;;;;;;;17.54;58.45;96988.50;2084596;28;19929;-50
2022/04/02 00:07:16;;;;;;;1.33;0.73;;;;;;;17.59;58.33;96980.59;2087137;28;20076;-50
2022/04/02 00:08:18;;;;;;;1.35;0.70;;;;;;;17.61;58.21;96981.97;2083971;28;20053;-49
2022/04/02 00:09:20;;;;;;;2.65;0.90;;;;;;;17.63;58.14;96987.91;2080609;28;20049;-54
2022/04/02 00:10:21;;;;;;;2.65;0.70;;;;;;;17.63;58.05;96985.25;2084782;28;20079;-53
2022/04/02 00:11:22;;;;;;;;;;;;;;;17.52;58.21;96983.38;2085934;28;20682;-49
2022/04/02 00:12:23;;;;;;;;;;;;;;;17.45;58.53;96990.75;2089139;28;19920;-51
2022/04/02 00:13:25;;;;;;;1.05;0.80;;;;;;;17.50;58.49;96990.84;2083268;28;19960;-53
2022/04/02 00:14:27;;;;;;;2.28;1.00;;;;;;;17.55;58.25;96990.13;2079357;28;20044;-53
2022/04/02 00:15:28;;;;;;;1.73;0.75;;;;;;;17.58;58.04;96990.50;2089388;28;20155;-53
2022/04/02 00:16:29;;;;;;;;;;;;;;;17.46;58.42;96992.38;2087771;28;20596;-54
2022/04/02 00:17:30;;;;;;;3.38;0.80;;;;;;;17.48;58.38;96990.28;2083775;28;19921;-54
2022/04/02 00:18:32;;;;;;;;;;;;;;;17.41;58.62;96989.56;2083275;28;20053;-50
2022/04/02 00:19:33;;;;;;;2.10;0.63;;;;;;;17.45;58.60;96990.75;2080055;28;19986;-51
2022/04/02 00:20:34;;;;;;;2.58;1.02;;;;;;;17.49;58.37;96994.56;2087426;28;20049;-51
2022/04/02 00:21:37;;;;;;;;;;;;;;;17.40;58.55;96996.81;2089595;28;20055;-52
2022/04/02 00:22:38;;;;;;;1.25;0.80;;;;;;;17.44;58.60;96991.81;2090279;28;20576;-51
2022/04/02 00:23:40;;;;;;;;;;;;;;;17.38;58.44;96996.25;2088568;28;20131;-53
2022/04/02 00:24:42;;;;;;;1.35;0.80;;;;;;;17.43;58.30;96987.47;2091396;28;19927;-51
2022/04/02 00:25:43;;;;;;;2.00;0.75;;;;;;;17.48;58.38;96979.56;2086318;28;20060;-50
2022/04/02 00:26:45;;;;;;;;;;;;;;;17.39;58.44;96980.97;2088528;28;20373;-51
2022/04/02 00:27:45;;;;;;;1.02;0.70;;;;;;;17.42;58.51;96964.41;2085586;28;19963;-49
2022/04/02 00:28:49;;;;;;;;;;;;;;;17.34;58.57;96970.16;2086938;28;20056;-53
2022/04/02 00:29:50;;;;;;;1.98;0.95;;;;;;;17.39;58.54;96964.91;2078109;28;20536;-53
2022/04/02 00:30:51;;;;;;;;;;;;;;;17.33;58.64;96963.16;2079582;28;20182;-53
2022/04/02 00:31:53;;;;;;;;;;;;;;;17.28;58.86;96963.84;2085571;28;19925;-49
2022/04/02 00:32:54;;;;;;;1.08;0.98;;;;;;;17.35;58.69;96961.84;2088719;28;19928;-52
2022/04/02 00:33:55;;;;;;;;;;;;;;;17.30;58.72;96955.56;2085596;28;20053;-50
2022/04/02 00:34:57;;;;;;;0.63;0.63;;;;;;;17.34;58.57;96946.03;2088312;28;19952;-51
2022/04/02 00:35:58;;;;;;;1.30;0.68;;;;;;;17.40;58.36;96950.44;2085763;28;20529;-53
2022/04/02 00:36:59;;;;;;;;;;;;;;;17.32;58.70;96948.13;2084826;28;20127;-52
2022/04/02 00:38:00;;;;;;;;;;;;;;;17.26;58.78;96943.72;2081168;28;19920;-52
2022/04/02 00:39:03;;;;;;;1.20;0.90;;;;;;;17.30;58.77;96948.38;2087645;28;19920;-51
2022/04/02 00:40:05;;;;;;;0.70;0.45;;;;;;;17.36;58.39;96949.28;2088106;28;20052;-53
2022/04/02 00:41:08;;;;;;;1.40;0.63;;;;;;;17.39;58.50;96948.81;2084755;28;20041;-54
2022/04/02 00:42:10;;;;;;;0.60;0.60;;;;;;;17.41;58.30;96942.16;2087557;28;20045;-55
2022/04/02 00:43:22;;;;;;;0.88;0.68;;;;;;;17.41;58.22;96947.53;2083732;28;20098;-54
2022/04/02 00:44:25;;;;;;;2.35;1.05;;;;;;;17.41;58.08;96952.88;2082487;28;20131;-54
2022/04/02 00:45:26;;;;;;;1.95;0.70;;;;;;;17.40;58.15;96953.91;2088236;28;20131;-52
2022/04/02 00:46:27;;;;;;;;;;;;;;;17.29;58.53;96945.91;2085382;28;20138;-55
2022/04/02 00:47:29;;;;;;;1.75;0.68;;;;;;;17.33;58.49;96947.09;2085588;28;20322;-52
2022/04/02 00:48:30;;;;;;;0.45;0.43;;;;;;;17.35;58.40;96947.66;2084694;28;20041;-51
2022/04/02 00:49:32;;;;;;;;;;;;;;;17.27;58.51;96948.81;2088524;28;20491;-50
2022/04/02 00:50:33;;;;;;;1.25;0.90;;;;;;;17.31;58.46;96951.88;2085101;28;19929;-50
2022/04/02 00:51:41;;;;;;;2.67;0.90;;;;;;;17.34;58.27;96954.88;2080497;28;20053;-50
2022/04/02 00:52:43;;;;;;;1.13;0.55;;;;;;;17.35;58.31;96958.38;2087074;28;20044;-51
2022/04/02 00:53:47;;;;;;;3.05;1.23;;;;;;;17.38;58.23;96960.56;2085535;28;20049;-51
2022/04/02 00:54:52;;;;;;;1.35;0.60;;;;;;;17.35;58.23;96959.16;2086187;28;20083;-54
2022/04/02 00:55:53;;;;;;;0.73;0.50;;;;;;;17.34;58.24;96960.22;2089403;28;20060;-51
2022/04/02 00:56:56;;;;;;;2.53;1.20;;;;;;;17.38;58.08;96957.88;2084815;28;20052;-51
2022/04/02 00:57:57;;;;;;;1.65;0.50;;;;;;;17.34;58.31;96962.91;2087591;28;20056;-54
2022/04/02 00:58:59;;;;;;;;;;;;;;;17.25;58.51;96960.84;2085747;28;20048;-55
2022/04/02 01:00:00;;;;;;;1.65;0.55;;;;;;;17.26;58.45;96954.44;2084158;28;19927;-51
2022/04/02 01:01:02;;;;;;;0.95;0.47;;;;;;;17.27;58.42;96961.41;2085968;28;20045;-52
2022/04/02 01:02:04;;;;;;;1.70;0.73;;;;;;;17.27;58.49;96956.03;2086072;28;20720;-55
2022/04/02 01:03:07;;;;;;;1.17;0.75;;;;;;;17.26;58.44;96957.09;2087160;28;20495;-52
2022/04/02 01:04:09;;;;;;;1.73;0.98;;;;;;;17.25;58.34;96968.88;2084772;28;20068;-55
2022/04/02 01:05:10;;;;;;;1.35;0.82;;;;;;;17.25;58.42;96958.97;2087501;28;20041;-54
2022/04/02 01:06:12;;;;;;;;;;;;;;;17.13;58.70;96952.81;2082798;28;20051;-54
2022/04/02 01:07:15;;;;;;;1.83;1.15;;;;;;;17.17;58.64;96965.50;2084676;28;19924;-55
2022/04/02 01:08:17;;;;;;;1.15;0.60;;;;;;;17.21;58.46;96957.81;2087073;28;20044;-54
2022/04/02 01:09:18;;;;;;;4.28;0.57;;;;;;;17.23;58.44;96960.25;2086099;28;20142;-54
2022/04/02 01:12:00;;;;;;;0.95;0.50;;;;;;;17.11;58.78;96974.47;2080385;28;19920;-52
2022/04/02 01:13:01;;;;;;;1.58;1.05;;;;;;;17.13;58.62;96969.72;2083815;28;20055;-50
2022/04/02 01:14:03;;;;;;;;;;;;;;;17.05;58.78;96970.06;2089942;28;20128;-48
2022/04/02 01:15:05;;;;;;;1.20;0.50;;;;;;;17.10;58.62;96974.69;2086813;28;19928;-57
2022/04/02 01:16:08;;;;;;;1.83;1.13;;;;;;;17.12;58.72;96972.63;2078823;28;20098;-53
2022/04/02 01:17:08;;;;;;;1.20;0.82;;;;;;;17.13;58.60;96967.03;2083546;28;20060;-52
2022/04/02 01:18:10;;;;;;;;;;;;;;;17.03;58.92;96968.66;2087731;28;20041;-53
2022/04/02 01:19:11;;;;;;;;;;;;;;;16.95;59.06;96972.50;2084811;28;19957;-51
2022/04/02 01:20:14;;;;;;;1.02;0.73;;;;;;;17.02;58.89;96962.50;2085808;28;20345;-49
2022/04/02 01:21:16;;;;;;;1.75;0.40;;;;;;;17.06;58.74;96960.97;2085167;28;20080;-52
2022/04/02 01:22:18;;;;;;;1.67;0.70;;;;;;;17.10;58.63;96972.84;2084913;28;20117;-52
2022/04/02 01:23:28;;;;;;;1.05;0.95;;;;;;;17.11;58.53;96969.13;2089081;28;20041;-54
2022/04/02 01:24:30;;;;;;;2.28;0.70;;;;;;;17.11;58.60;96965.63;2089150;28;20055;-54
2022/04/02 01:25:32;;;;;;;0.93;0.88;;;;;;;17.12;58.49;96961.91;2089489;28;20131;-54
2022/04/02 01:26:34;;;;;;;3.05;0.60;;;;;;;17.12;58.52;96964.56;2090041;28;20119;-54
2022/04/02 01:27:35;;;;;;;1.42;0.70;;;;;;;17.10;58.59;96964.78;2087201;28;20041;-52
2022/04/02 01:28:36;;;;;;;;;;;;;;;17.00;58.75;96961.09;2086550;28;20047;-53
2022/04/02 01:29:37;;;;;;;1.25;0.95;;;;;;;17.03;58.69;96958.75;2086764;28;19967;-50
2022/04/02 01:30:39;;;;;;;;;;;;;;;16.94;58.89;96958.31;2087956;28;20044;-53
2022/04/02 01:31:42;;;;;;;;;;;;;;;16.90;59.05;96965.16;2085912;28;19921;-52
2022/04/02 01:32:44;;;;;;;0.85;0.50;;;;;;;16.96;59.05;96963.41;2086525;28;20365;-52
2022/04/02 01:33:45;;;;;;;1.65;0.75;;;;;;;17.00;58.81;96961.91;2084711;28;20061;-54
2022/04/02 01:34:46;;;;;;;;;;;;;;;16.92;58.91;96965.75;2084444;28;20050;-54
2022/04/02 01:35:58;;;;;;;2.90;0.95;;;;;;;16.94;58.90;96965.53;2085297;28;19971;-52
2022/04/02 01:36:59;;;;;;;1.17;0.77;;;;;;;16.98;58.81;96964.81;2087223;28;20086;-54
2022/04/02 01:38:02;;;;;;;;;;;;;;;16.91;59.04;96968.66;2086256;28;20052;-53
2022/04/02 01:39:03;;;;;;;1.60;0.75;;;;;;;16.95;58.96;96965.28;2083275;28;20647;-54
2022/04/02 01:40:05;;;;;;;;;;;;;;;16.89;59.03;96962.72;2087270;28;20123;-53
2022/04/02 01:41:06;;;;;;;0.80;0.60;;;;;;;16.95;58.96;96961.78;2086975;28;20574;-53
2022/04/02 01:42:08;;;;;;;;;;;;;;;16.87;58.98;96964.81;2089643;28;20051;-56
2022/04/02 01:43:09;;;;;;;;;;;;;;;16.81;59.27;96965.75;2086063;28;19925;-53
2022/04/02 01:44:10;;;;;;;1.52;0.65;;;;;;;16.87;59.14;96964.81;2086501;28;20288;-52
2022/04/02 01:45:12;;;;;;;1.10;0.47;;;;;;;16.94;58.73;96963.66;2088351;28;20083;-49
2022/04/02 01:46:14;;;;;;;1.60;1.10;;;;;;;17.00;58.64;96969.13;2085004;28;20124;-56
2022/04/02 01:47:15;;;;;;;1.45;0.82;;;;;;;16.99;58.57;96962.94;2089371;28;20045;-51
2022/04/02 01:48:16;;;;;;;;;;;;;;;16.88;58.87;96961.91;2088700;28;20052;-50
2022/04/02 01:49:17;;;;;;;1.10;0.63;;;;;;;16.92;58.90;96963.06;2076727;28;19967;-50
2022/04/02 01:50:19;;;;;;;;;;;;;;;16.85;59.06;96962.34;2086763;28;20052;-55
2022/04/02 01:51:20;;;;;;;2.03;1.23;;;;;;;16.90;58.92;96961.66;2084182;28;19973;-56
2022/04/02 01:52:21;;;;;;;;;;;;;;;16.81;59.00;96955.84;2088375;28;20040;-55
2022/04/02 01:53:24;;;;;;;;;;;;;;;16.76;59.20;96955.69;2085065;28;19940;-54
2022/04/02 01:54:26;;;;;;;1.67;0.90;;;;;;;16.83;59.04;96961.00;2089364;28;19972;-53
2022/04/02 01:55:26;;;;;;;1.73;0.77;;;;;;;16.89;58.88;96952.03;2089098;28;20044;-51
2022/04/02 01:56:28;;;;;;;;;;;;;;;16.82;59.04;96953.97;2084761;28;20052;-51
2022/04/02 01:57:29;;;;;;;1.55;1.13;;;;;;;16.85;58.97;96948.97;2086908;28;19928;-53
2022/04/02 01:58:30;;;;;;;;;;;;;;;16.75;59.20;96944.19;2084213;28;20139;-49
2022/04/02 01:59:31;;;;;;;1.65;0.73;;;;;;;16.82;58.99;96943.28;2084674;28;19924;-51
2022/04/02 02:00:33;;;;;;;;;;;;;;;16.75;59.17;96946.06;2089710;28;20660;-55
2022/04/02 02:01:34;;;;;;;0.60;0.47;;;;;;;16.81;59.05;96945.13;2086459;28;19966;-53
2022/04/02 02:02:35;;;;;;;;;;;;;;;16.72;59.24;96946.50;2087808;28;20044;-52
2022/04/02 02:03:36;;;;;;;0.90;0.63;;;;;;;16.80;59.06;96956.06;2086336;28;19978;-54
2022/04/02 02:04:38;;;;;;;;;;;;;;;16.71;59.22;96963.59;2087481;28;21178;-55
2022/04/02 02:05:39;;;;;;;0.70;0.68;;;;;;;16.78;59.09;96964.34;2085406;28;20031;-54
2022/04/02 02:06:41;;;;;;;0.57;0.50;;;;;;;16.83;58.91;96972.50;2085760;28;20055;-54
2022/04/02 02:07:48;;;;;;;0.90;0.60;;;;;;;16.86;58.72;96965.88;2088347;28;20079;-53
2022/04/02 02:08:51;;;;;;;1.50;0.80;;;;;;;16.86;58.71;96961.34;2084107;28;20047;-51
2022/04/02 02:09:57;;;;;;;1.25;0.73;;;;;;;16.88;58.68;96964.59;2086198;28;20410;-50
2022/04/02 02:10:59;;;;;;;1.25;0.82;;;;;;;16.89;58.55;96970.75;2087495;28;20059;-55
2022/04/02 02:12:00;;;;;;;2.55;0.50;;;;;;;16.88;58.57;96969.13;2086719;28;20064;-59
2022/04/02 02:13:02;;;;;;;;;;;;;;;16.78;58.83;96969.72;2086414;28;20076;-50
2022/04/02 02:14:02;;;;;;;0.68;0.35;;;;;;;16.81;58.87;96968.44;2081656;28;19924;-58
2022/04/02 02:15:04;;;;;;;;;;;;;;;16.70;58.98;96962.78;2084653;28;20143;-51
2022/04/02 02:16:05;;;;;;;1.05;0.70;;;;;;;16.74;59.00;96958.63;2087931;28;20405;-59
2022/04/02 02:17:07;;;;;;;;;;;;;;;16.67;59.10;96959.78;2089747;28;20048;-57
2022/04/02 02:18:07;;;;;;;;;;;;;;;16.60;59.45;96961.72;2080069;28;19928;-57
2022/04/02 02:19:09;;;;;;;1.27;0.83;;;;;;;16.69;59.26;96958.50;2084584;28;19925;-57
2022/04/02 02:20:12;;;;;;;1.52;0.98;;;;;;;16.74;58.89;96966.66;2084592;28;20504;-53
2022/04/02 02:21:14;;;;;;;0.70;0.52;;;;;;;16.78;58.95;96968.91;2084978;28;20886;-55
2022/04/02 02:22:16;;;;;;;2.75;0.80;;;;;;;16.80;58.85;96966.78;2087200;28;20068;-51
2022/04/02 02:23:16;;;;;;;1.70;0.55;;;;;;;16.81;58.75;96971.09;2087331;28;20616;-56
2022/04/02 02:24:20;;;;;;;;;;;;;;;16.69;59.02;96974.56;2085884;28;20040;-49
2022/04/02 02:25:21;;;;;;;1.95;0.60;;;;;;;16.73;59.03;96978.41;2090136;28;20610;-54
2022/04/02 02:26:22;;;;;;;;;;;;;;;16.66;59.06;96984.91;2089050;28;20048;-51
2022/04/02 02:27:25;;;;;;;;;;;;;;;16.59;59.22;96985.00;2090730;28;20385;-54
2022/04/02 02:28:27;;;;;;;0.43;0.40;;;;;;;16.65;59.19;96980.59;2087810;28;19920;-48
2022/04/02 02:29:28;;;;;;;1.15;0.85;;;;;;;16.72;59.01;96992.84;2086541;28;20037;-57
2022/04/02 02:30:29;;;;;;;;;;;;;;;16.61;59.12;96979.44;2088279;28;20058;-48
2022/04/02 02:31:30;;;;;;;1.65;0.80;;;;;;;16.67;59.09;96976.66;2085908;28;19974;-54
2022/04/02 02:32:36;;;;;;;;;;;;;;;16.60;59.25;96977.78;2089290;28;20075;-50
2022/04/02 02:36:17;;;;;;;0.77;0.52;;;;;;;16.69;58.85;96963.03;2086470;28;20045;-52
2022/04/02 02:37:20;;;;;;;1.48;0.90;;;;;;;16.71;58.86;96966.28;2085747;28;20130;-50
2022/04/02 02:38:21;;;;;;;2.55;0.65;;;;;;;16.72;58.77;96958.03;2084391;28;20041;-49
2022/04/02 02:39:24;;;;;;;;;;;;;;;16.59;59.07;96963.59;2083428;28;20131;-49
2022/04/02 02:40:25;;;;;;;1.77;0.63;;;;;;;16.63;59.05;96964.78;2085886;28;20880;-51
2022/04/02 02:41:27;;;;;;;;;;;;;;;16.54;59.30;96961.59;2086690;28;20094;-51
2022/04/02 02:42:27;;;;;;;1.08;0.82;;;;;;;16.60;59.21;96962.53;2089686;28;19925;-52
2022/04/02 02:43:29;;;;;;;;;;;;;;;16.53;59.34;96961.84;2084604;28;20062;-48
2022/04/02 02:44:30;;;;;;;0.93;0.70;;;;;;;16.61;59.00;96956.16;2083433;28;19935;-49
2022/04/02 02:45:32;;;;;;;;;;;;;;;16.52;59.28;96950.34;2083830;28;20051;-51
2022/04/02 02:46:34;;;;;;;1.50;0.82;;;;;;;16.59;59.06;96952.91;2089540;28;20281;-53
2022/04/02 02:47:36;;;;;;;1.02;0.93;;;;;;;16.62;59.03;96952.44;2086731;28;20043;-51
2022/04/02 02:48:37;;;;;;;1.20;0.70;;;;;;;16.64;58.90;96945.00;2083658;28;20091;-50
2022/04/02 02:49:38;;;;;;;;;;;;;;;16.54;59.02;96947.41;2080911;28;20048;-51
2022/04/02 02:50:39;;;;;;;0.70;0.63;;;;;;;16.58;58.99;96953.94;2083032;28;20271;-53
2022/04/02 02:51:41;;;;;;;;;;;;;;;16.48;59.32;96945.66;2088647;28;20037;-50
2022/04/02 02:52:41;;;;;;;;;;;;;;;16.42;59.45;96949.28;2085806;28;19928;-51
2022/04/02 02:53:44;;;;;;;0.70;0.63;;;;;;;16.49;59.42;96956.16;2086661;28;19927;-50
2022/04/02 02:54:46;;;;;;;1.20;0.63;;;;;;;16.54;59.20;96958.13;2086825;28;20060;-49
2022/04/02 02:55:49;;;;;;;1.25;0.50;;;;;;;16.57;59.08;96954.16;2085818;28;20052;-53
2022/04/02 02:56:49;;;;;;;0.63;0.52;;;;;;;16.60;58.95;96951.84;2087569;28;20052;-50
2022/04/02 02:57:51;;;;;;;;;;;;;;;16.50;59.09;96954.28;2088043;28;20115;-51
2022/04/02 02:58:52;;;;;;;1.75;0.88;;;;;;;16.53;59.17;96957.31;2088600;28;19925;-50
2022/04/02 02:59:54;;;;;;;;;;;;;;;16.43;59.37;96957.06;2085861;28;20045;-56
2022/04/02 03:00:55;;;;;;;0.93;0.60;;;;;;;16.49;59.15;96956.16;2080578;28;19924;-57
2022/04/02 03:01:57;;;;;;;;;;;;;;;16.41;59.41;96955.66;2084131;28;20127;-54
2022/04/02 03:02:58;;;;;;;1.30;0.57;;;;;;;16.48;59.31;96959.06;2085428;28;20019;-52
2022/04/02 03:04:00;;;;;;;1.67;0.80;;;;;;;16.55;59.06;96954.41;2086299;28;20051;-52
2022/04/02 03:05:01;;;;;;;1.85;0.63;;;;;;;16.56;59.00;96958.72;2082706;28;20083;-51
2022/04/02 03:06:02;;;;;;;;;;;;;;;16.45;59.23;96954.97;2086985;28;20049;-54
2022/04/02 03:07:04;;;;;;;0.95;0.65;;;;;;;16.47;59.14;96952.06;2086328;28;20391;-50
2022/04/02 03:08:06;;;;;;;1.45;0.47;;;;;;;16.52;58.99;96949.53;2085132;28;20053;-51
2022/04/02 03:09:07;;;;;;;1.05;0.73;;;;;;;16.54;58.94;96944.75;2086428;28;20128;-52
2022/04/02 03:10:10;;;;;;;0.75;0.47;;;;;;;16.57;58.79;96941.59;2086545;28;20474;-52
2022/04/02 03:11:12;;;;;;;1.02;0.50;;;;;;;16.57;58.81;96941.59;2088462;28;20081;-51
2022/04/02 03:12:13;;;;;;;2.22;0.60;;;;;;;16.58;58.71;96942.44;2085439;28;20041;-50
2022/04/02 03:13:15;;;;;;;0.30;0.30;;;;;;;16.57;58.83;96940.78;2087880;28;20468;-51
2022/04/02 03:14:16;;;;;;;1.00;0.75;;;;;;;16.55;58.77;96933.00;2084503;28;20178;-50
2022/04/02 03:15:18;;;;;;;;;;;;;;;16.43;59.04;96937.50;2085459;28;20444;-53
2022/04/02 03:16:19;;;;;;;1.02;0.70;;;;;;;16.45;59.10;96933.56;2085773;28;20433;-52
2022/04/02 03:17:21;;;;;;;;;;;;;;;16.36;59.33;96931.47;2084278;28;20056;-51
2022/04/02 03:18:22;;;;;;;1.33;0.65;;;;;;;16.42;59.23;96933.22;2082692;28;19932;-51
2022/04/02 03:19:24;;;;;;;;;;;;;;;16.34;59.35;96934.34;2085792;28;20148;-51
2022/04/02 03:20:24;;;;;;;0.55;0.40;;;;;;;16.42;59.10;96934.03;2088444;28;20437;-53
2022/04/02 03:21:27;;;;;;;;;;;;;;;16.35;59.39;96937.84;2081677;28;20064;-54
2022/04/02 03:22:28;;;;;;;0.68;0.47;;;;;;;16.37;59.34;96941.13;2086383;28;20383;-50
2022/04/02 03:23:30;;;;;;;;;;;;;;;16.30;59.45;96941.22;2086249;28;20072;-52
2022/04/02 03:24:30;;;;;;;1.80;0.60;;;;;;;16.36;59.36;96939.50;2083893;28;19929;-50
2022/04/02 03:25:34;;;;;;;;;;;;;;;16.30;59.51;96946.59;2083757;28;20056;-51
2022/04/02 03:26:36;;;;;;;1.23;0.50;;;;;;;16.35;59.28;96937.84;2087344;28;20410;-53
2022/04/02 03:27:37;;;;;;;1.17;0.70;;;;;;;16.41;59.16;96942.28;2085854;28;20164;-48
2022/04/02 03:28:39;;;;;;;1.42;0.70;;;;;;;16.45;59.01;96946.13;2088727;28;20052;-54
2022/04/02 03:29:40;;;;;;;0.93;0.63;;;;;;;16.44;58.95;96945.31;2089350;28;20048;-55
2022/04/02 03:30:41;;;;;;;;;;;;;;;16.33;59.26;96946.13;2087778;28;20049;-51
2022/04/02 03:31:43;;;;;;;0.40;0.30;;;;;;;16.38;59.20;96948.94;2090916;28;19960;-53
2022/04/02 03:32:46;;;;;;;0.75;0.70;;;;;;;16.42;59.01;96949.28;2081931;28;20333;-52
2022/04/02 03:33:46;;;;;;;0.70;0.70;;;;;;;16.43;58.83;96950.88;2086774;28;20060;-50
2022/04/02 03:34:48;;;;;;;;;;;;;;;16.33;59.26;96953.34;2086464;28;20063;-56
2022/04/02 03:35:49;;;;;;;2.28;0.80;;;;;;;16.36;59.15;96961.72;2085778;28;19920;-52
2022/04/02 03:36:50;;;;;;;;;;;;;;;16.27;59.30;96955.06;2086851;28;20055;-50
2022/04/02 03:37:52;;;;;;;0.82;0.55;;;;;;;16.34;59.26;96953.09;2086612;28;19956;-49
2022/04/02 03:38:54;;;;;;;1.35;0.47;;;;;;;16.40;59.03;96960.19;2087949;28;20061;-56
2022/04/02 03:39:55;;;;;;;1.70;0.60;;;;;;;16.42;58.90;96966.13;2084896;28;21105;-51
2022/04/02 03:40:58;;;;;;;;;;;;;;;16.32;59.15;96963.19;2087806;28;20048;-52
2022/04/02 03:41:59;;;;;;;1.58;0.60;;;;;;;16.35;59.21;96970.75;2081139;28;20289;-52
2022/04/02 03:43:01;;;;;;;;;;;;;;;16.25;59.38;96967.84;2085312;28;20163;-51
2022/04/02 03:44:01;;;;;;;;;;;;;;;16.18;59.53;96965.25;2088169;28;21170;-51
2022/04/02 03:45:04;;;;;;;1.27;0.50;;;;;;;16.25;59.59;96970.53;2084614;28;19960;-49
2022/04/02 03:47:25;;;;;;;1.45;1.35;;;;;;;16.34;59.16;96984.38;2082646;28;20044;-51
2022/04/02 03:48:26;;;;;;;1.20;0.52;;;;;;;16.37;59.05;96995.44;2087057;28;20055;-49
2022/04/02 03:49:27;;;;;;;0.98;0.63;;;;;;;16.39;58.90;97011.28;2086069;28;20055;-52
2022/04/02 03:50:29;;;;;;;;;;;;;;;16.28;59.21;97013.69;2087444;28;20088;-50
2022/04/02 03:51:29;;;;;;;2.30;0.90;;;;;;;16.31;59.17;97002.53;2085595;28;20425;-52
2022/04/02 03:52:31;;;;;;;;;;;;;;;16.23;59.38;97021.56;2086430;28;20049;-54
2022/04/02 03:53:32;;;;;;;1.25;0.60;;;;;;;16.30;59.15;97005.44;2087230;28;19932;-54
2022/04/02 03:54:35;;;;;;;;;;;;;;;16.22;59.34;96995.88;2088494;28;20505;-52
2022/04/02 03:55:36;;;;;;;2.30;0.60;;;;;;;16.29;59.17;96983.19;2070421;28;19928;-55
2022/04/02 03:56:39;;;;;;;;;;;;;;;16.22;59.40;96981.69;2085723;28;20502;-55
2022/04/02 03:57:40;;;;;;;0.90;0.60;;;;;;;16.25;59.32;96975.88;2084918;28;19929;-56
2022/04/02 03:58:42;;;;;;;1.20;0.73;;;;;;;16.31;59.12;96966.94;2085145;28;20804;-57
2022/04/02 03:59:46;;;;;;;2.97;0.68;;;;;;;16.31;58.85;96951.69;2087945;28;20075;-57
2022/04/02 04:00:46;;;;;;;2.08;0.65;;;;;;;16.33;58.96;96948.78;2085729;28;20047;-48
2022/04/02 04:01:48;;;;;;;;;;;;;;;16.22;59.23;96937.03;2082769;28;20102;-57
2022/04/02 04:02:50;;;;;;;1.95;0.70;;;;;;;16.26;59.13;96934.69;2081500;28;19924;-49
2022/04/02 04:03:51;;;;;;;0.90;0.52;;;;;;;16.27;59.31;96937.16;2086001;28;20123;-50
2022/04/02 04:04:52;;;;;;;;;;;;;;;16.19;59.26;96928.66;2084189;28;20049;-54
2022/04/02 04:05:53;;;;;;;0.57;0.35;;;;;;;16.25;59.22;96933.06;2083539;28;19947;-50
2022/04/02 04:06:56;;;;;;;;;;;;;;;16.16;59.36;96929.91;2087223;28;20736;-56
2022/04/02 04:07:58;;;;;;;2.58;0.65;;;;;;;16.26;59.23;96930.16;2089590;28;19973;-49
2022/04/02 04:08:58;;;;;;;0.90;0.40;;;;;;;16.33;59.12;96930.06;2085680;28;20045;-48
2022/04/02 04:10:00;;;;;;;;;;;;;;;16.32;59.07;96923.06;2089485;28;20063;-50
2022/04/02 04:11:01;;;;;;;0.85;0.45;;;;;;;16.41;58.96;96931.56;2085293;28;19928;-54
2022/04/02 04:12:04;;;;;;;;;;;;;;;16.40;58.83;96924.59;2088160;28;20542;-51
2022/04/02 04:13:05;;;;;;;1.27;0.55;;;;;;;16.51;58.68;96921.13;2085759;28;19935;-55
2022/04/02 04:14:07;;;;;;;1.30;0.70;;;;;;;16.62;58.50;96932.88;2086715;28;20037;-54
2022/04/02 04:15:08;;;;;;;1.40;0.40;;;;;;;16.69;58.43;96930.91;2087442;28;20517;-50
2022/04/02 04:16:10;;;;;;;0.47;0.45;;;;;;;16.74;58.36;96929.19;2085172;28;20067;-51
2022/04/02 04:17:11;;;;;;;0.40;0.25;;;;;;;16.79;58.31;96930.34;2086112;28;20064;-53
2022/04/02 04:18:13;;;;;;;;;;;;;;;16.71;58.43;96932.28;2085553;28;20395;-52
2022/04/02 04:19:13;;;;;;;;;;;;;;;16.70;58.66;96933.34;2084685;28;20702;-52
2022/04/02 04:20:15;;;;;;;1.45;0.50;;;;;;;16.78;58.42;96934.91;2088223;28;19927;-49
2022/04/02 04:21:16;;;;;;;1.45;0.60;;;;;;;16.86;58.38;96931.06;2086781;28;20072;-51
2022/04/02 04:22:17;;;;;;;;;;;;;;;16.83;58.50;96935.03;2084921;28;20517;-52
2022/04/02 04:23:18;;;;;;;1.23;0.45;;;;;;;16.91;58.35;96929.31;2083312;28;19960;-51
2022/04/02 04:24:20;;;;;;;;;;;;;;;16.91;58.40;96925.78;2084352;28;20056;-54
2022/04/02 04:25:22;;;;;;;;;;;;;;;16.91;58.45;96923.13;2087692;28;19920;-54
2022/04/02 04:26:23;;;;;;;1.02;0.50;;;;;;;16.97;58.40;96927.56;2086502;28;19929;-52
2022/04/02 04:27:26;;;;;;;;;;;;;;;16.97;58.39;96935.59;2087771;28;20715;-49
2022/04/02 04:28:26;;;;;;;1.42;0.70;;;;;;;17.07;58.28;96929.63;2087473;28;20035;-53
2022/04/02 04:29:28;;;;;;;;;;;;;;;17.02;58.38;96926.84;2086868;28;20061;-54
2022/04/02 04:30:29;;;;;;;;;;;;;;;17.02;58.35;96933.03;2088296;28;20310;-53
2022/04/02 04:31:31;;;;;;;1.10;0.60;;;;;;;17.12;58.26;96930.56;2087003;28;19924;-52
2022/04/02 04:32:33;;;;;;;0.85;0.32;;;;;;;17.18;58.10;96934.97;2084412;28;20675;-52
2022/04/02 04:33:35;;;;;;;1.10;0.55;;;;;;;17.26;57.99;96927.63;2088091;28;20286;-49
2022/04/02 04:34:37;;;;;;;0.90;0.50;;;;;;;17.29;57.83;96922.59;2088609;28;20045;-50
2022/04/02 04:35:38;;;;;;;1.80;0.63;;;;;;;17.32;57.90;96921.31;2089922;28;20052;-52
2022/04/02 04:36:39;;;;;;;;;;;;;;;17.26;58.04;96916.91;2087495;28;20048;-50
2022/04/02 04:37:40;;;;;;;1.92;0.20;;;;;;;17.32;57.94;96916.78;2087151;28;19940;-52
2022/04/02 04:38:42;;;;;;;;;;;;;;;17.29;58.17;96916.44;2088950;28;20048;-51
2022/04/02 04:39:42;;;;;;;;;;;;;;;17.29;58.15;96916.44;2084365;28;20379;-53
2022/04/02 04:40:44;;;;;;;0.30;0.30;;;;;;;17.35;58.00;96910.13;2087070;28;19966;-52
2022/04/02 04:41:45;;;;;;;0.95;0.63;;;;;;;17.38;57.81;96906.97;2087560;28;20060;-53
2022/04/02 04:42:48;;;;;;;;;;;;;;;17.35;57.96;96904.78;2088568;28;20044;-51
2022/04/02 04:43:49;;;;;;;0.75;0.60;;;;;;;17.39;58.00;96905.94;2088096;28;19956;-50
2022/04/02 04:44:50;;;;;;;;;;;;;;;17.36;58.10;96909.09;2083663;28;20045;-53
2022/04/02 04:45:51;;;;;;;;;;;;;;;17.34;58.19;96913.88;2085844;28;19925;-50
2022/04/02 04:46:53;;;;;;;1.03;0.53;;;;;;;17.38;58.01;96905.13;2084628;28;19921;-49
2022/04/02 04:47:54;;;;;;;1.02;0.30;;;;;;;17.46;58.05;96914.63;2087511;28;20049;-51
2022/04/02 04:48:55;;;;;;;;;;;;;;;17.41;58.15;96915.38;2073371;28;20561;-53
2022/04/02 04:49:56;;;;;;;0.40;0.40;;;;;;;17.47;57.71;96910.09;2084380;28;19967;-52
2022/04/02 04:50:58;;;;;;;;;;;;;;;17.41;58.11;96910.00;2087466;28;20449;-50
2022/04/02 04:51:59;;;;;;;0.63;0.55;;;;;;;17.49;58.02;96910.66;2088424;28;19924;-52
2022/04/02 04:53:00;;;;;;;;;;;;;;;17.45;58.05;96914.88;2084601;28;20045;-49
2022/04/02 04:54:01;;;;;;;1.85;0.85;;;;;;;17.49;57.78;96914.16;2086231;28;20390;-49
2022/04/02 04:55:02;;;;;;;;;;;;;;;17.46;58.00;96906.59;2082227;28;20049;-51
2022/04/02 04:56:04;;;;;;;3.03;1.58;;;;;;;17.53;57.89;96909.16;2084913;28;20362;-52
2022/04/02 04:57:06;;;;;;;0.52;0.32;;;;;;;17.56;57.72;96904.13;2086419;28;20041;-49
2022/04/02 04:58:08;;;;;;;1.08;0.98;;;;;;;17.60;57.61;96905.25;2086303;28;20084;-51
2022/04/02 04:59:10;;;;;;;2.30;0.52;;;;;;;17.60;57.87;96899.91;2084065;28;20052;-54
2022/04/02 05:00:15;;;;;;;1.30;0.43;;;;;;;17.64;57.49;96909.09;2083802;28;20079;-56
2022/04/02 05:01:16;;;;;;;0.90;0.50;;;;;;;17.64;57.56;96908.31;2083911;28;20525;-54
2022/04/02 05:02:17;;;;;;;1.05;0.50;;;;;;;17.65;57.60;96908.03;2083246;28;20044;-56
2022/04/02 05:03:20;;;;;;;;;;;;;;;17.59;57.57;96908.19;2086790;28;20480;-51
2022/04/02 05:04:21;;;;;;;0.47;0.47;;;;;;;17.61;57.71;96903.41;2087027;28;20007;-54
2022/04/02 05:05:23;;;;;;;;;;;;;;;17.55;57.72;96912.41;2086764;28;20049;-58